sensor_id;sensor_type;location;lat;lon;timestamp;pressure;altitude;pressure_sealevel;temperature;humidity
53651;BME280;39552;45.776;15.892;2022-08-19T00:01:33;99522.00;;;24.85;72.88
53651;BME280;39552;45.776;15.892;2022-08-19T00:04:05;99533.34;;;24.90;73.49
53651;BME280;39552;45.776;15.892;2022-08-19T00:06:33;99534.94;;;24.78;74.91
53651;BME280;39552;45.776;15.892;2022-08-19T00:09:00;99542.56;;;24.76;75.71
53651;BME280;39552;45.776;15.892;2022-08-19T00:11:27;99545.28;;;24.63;76.16
53651;BME280;39552;45.776;15.892;2022-08-19T00:13:54;99522.09;;;24.42;77.18
53651;BME280;39552;45.776;15.892;2022-08-19T00:16:24;99537.56;;;24.58;76.77
53651;BME280;39552;45.776;15.892;2022-08-19T00:18:52;99530.19;;;24.65;75.68
53651;BME280;39552;45.776;15.892;2022-08-19T00:21:19;99525.22;;;24.61;76.20
53651;BME280;39552;45.776;15.892;2022-08-19T00:23:46;99530.63;;;24.69;75.48
53651;BME280;39552;45.776;15.892;2022-08-19T00:26:12;99529.25;;;24.58;76.66
53651;BME280;39552;45.776;15.892;2022-08-19T00:28:39;99535.75;;;24.50;77.41
53651;BME280;39552;45.776;15.892;2022-08-19T00:31:07;99537.38;;;24.17;79.07
53651;BME280;39552;45.776;15.892;2022-08-19T00:33:35;99562.50;;;24.22;80.53
53651;BME280;39552;45.776;15.892;2022-08-19T00:36:04;99550.31;;;24.16;81.03
53651;BME280;39552;45.776;15.892;2022-08-19T00:38:31;99558.38;;;24.11;81.80
53651;BME280;39552;45.776;15.892;2022-08-19T00:41:04;99565.03;;;24.17;82.37
53651;BME280;39552;45.776;15.892;2022-08-19T00:43:31;99570.78;;;24.22;82.87
53651;BME280;39552;45.776;15.892;2022-08-19T00:45:59;99577.63;;;24.04;83.60
53651;BME280;39552;45.776;15.892;2022-08-19T00:48:25;99569.47;;;24.18;83.17
53651;BME280;39552;45.776;15.892;2022-08-19T00:50:53;99571.78;;;24.14;83.33
53651;BME280;39552;45.776;15.892;2022-08-19T00:53:24;99572.50;;;24.01;83.54
53651;BME280;39552;45.776;15.892;2022-08-19T00:55:53;99587.69;;;23.90;86.15
53651;BME280;39552;45.776;15.892;2022-08-19T00:58:24;99590.38;;;23.69;88.56
53651;BME280;39552;45.776;15.892;2022-08-19T01:00:53;99590.13;;;23.49;90.95
53651;BME280;39552;45.776;15.892;2022-08-19T01:03:20;99604.88;;;23.26;95.57
53651;BME280;39552;45.776;15.892;2022-08-19T01:05:48;99612.94;;;23.13;96.69
53651;BME280;39552;45.776;15.892;2022-08-19T01:08:18;99603.34;;;23.24;97.44
53651;BME280;39552;45.776;15.892;2022-08-19T01:10:48;99604.44;;;23.00;98.63
53651;BME280;39552;45.776;15.892;2022-08-19T01:13:17;99604.97;;;23.18;96.64
53651;BME280;39552;45.776;15.892;2022-08-19T01:15:48;99594.78;;;23.19;97.45
53651;BME280;39552;45.776;15.892;2022-08-19T01:18:17;99594.00;;;23.25;97.25
53651;BME280;39552;45.776;15.892;2022-08-19T01:20:45;99590.41;;;23.24;97.26
53651;BME280;39552;45.776;15.892;2022-08-19T01:23:14;99576.34;;;22.96;99.59
53651;BME280;39552;45.776;15.892;2022-08-19T01:25:45;99582.44;;;22.91;99.79
53651;BME280;39552;45.776;15.892;2022-08-19T01:28:18;99576.41;;;23.11;98.97
53651;BME280;39552;45.776;15.892;2022-08-19T01:31:00;99568.38;;;23.01;98.96
53651;BME280;39552;45.776;15.892;2022-08-19T01:33:33;99577.41;;;22.95;99.34
53651;BME280;39552;45.776;15.892;2022-08-19T01:36:05;99572.97;;;23.09;99.88
53651;BME280;39552;45.776;15.892;2022-08-19T01:38:36;99577.06;;;23.13;99.97
53651;BME280;39552;45.776;15.892;2022-08-19T01:41:10;99592.91;;;22.96;100.00
53651;BME280;39552;45.776;15.892;2022-08-19T01:43:37;99570.81;;;22.81;100.00
53651;BME280;39552;45.776;15.892;2022-08-19T01:46:24;99569.03;;;22.88;99.95
53651;BME280;39552;45.776;15.892;2022-08-19T01:48:50;99573.31;;;22.91;100.00
53651;BME280;39552;45.776;15.892;2022-08-19T01:51:17;99570.28;;;23.01;100.00
53651;BME280;39552;45.776;15.892;2022-08-19T01:53:49;99568.22;;;23.03;99.07
53651;BME280;39552;45.776;15.892;2022-08-19T01:56:16;99546.16;;;23.03;98.98
53651;BME280;39552;45.776;15.892;2022-08-19T01:58:47;99560.63;;;23.05;99.00
53651;BME280;39552;45.776;15.892;2022-08-19T02:01:15;99555.38;;;23.10;98.21
53651;BME280;39552;45.776;15.892;2022-08-19T02:03:42;99546.50;;;23.00;97.58
53651;BME280;39552;45.776;15.892;2022-08-19T02:06:09;99548.81;;;23.11;96.70
53651;BME280;39552;45.776;15.892;2022-08-19T02:08:38;99552.03;;;23.29;95.47
53651;BME280;39552;45.776;15.892;2022-08-19T02:11:06;99539.09;;;23.30;94.92
53651;BME280;39552;45.776;15.892;2022-08-19T02:13:34;99536.03;;;23.40;94.66
53651;BME280;39552;45.776;15.892;2022-08-19T02:16:01;99551.47;;;23.19;95.97
53651;BME280;39552;45.776;15.892;2022-08-19T02:18:29;99554.13;;;23.27;95.84
53651;BME280;39552;45.776;15.892;2022-08-19T02:20:56;99547.75;;;23.12;95.88
53651;BME280;39552;45.776;15.892;2022-08-19T02:23:23;99556.69;;;23.14;95.56
53651;BME280;39552;45.776;15.892;2022-08-19T02:25:51;99557.66;;;23.06;94.84
53651;BME280;39552;45.776;15.892;2022-08-19T02:28:19;99570.03;;;23.10;96.62
53651;BME280;39552;45.776;15.892;2022-08-19T02:30:47;99568.44;;;23.16;96.59
53651;BME280;39552;45.776;15.892;2022-08-19T02:33:14;99570.84;;;22.96;96.61
53651;BME280;39552;45.776;15.892;2022-08-19T02:35:41;99590.22;;;23.11;97.15
53651;BME280;39552;45.776;15.892;2022-08-19T02:38:08;99609.41;;;23.04;97.75
53651;BME280;39552;45.776;15.892;2022-08-19T02:40:35;99596.81;;;23.02;97.36
53651;BME280;39552;45.776;15.892;2022-08-19T02:43:02;99599.91;;;23.07;96.75
53651;BME280;39552;45.776;15.892;2022-08-19T02:45:33;99596.50;;;22.96;96.73
53651;BME280;39552;45.776;15.892;2022-08-19T02:47:59;99577.41;;;22.95;96.31
53651;BME280;39552;45.776;15.892;2022-08-19T02:50:28;99580.00;;;23.11;94.02
53651;BME280;39552;45.776;15.892;2022-08-19T02:52:55;99570.97;;;23.17;93.14
53651;BME280;39552;45.776;15.892;2022-08-19T02:55:22;99552.41;;;23.11;91.50
53651;BME280;39552;45.776;15.892;2022-08-19T02:57:48;99556.81;;;23.21;89.90
53651;BME280;39552;45.776;15.892;2022-08-19T03:00:16;99562.22;;;23.29;88.98
53651;BME280;39552;45.776;15.892;2022-08-19T03:02:44;99565.28;;;23.34;88.46
53651;BME280;39552;45.776;15.892;2022-08-19T03:05:10;99572.97;;;23.39;87.28
53651;BME280;39552;45.776;15.892;2022-08-19T03:07:37;99586.94;;;23.37;89.79
53651;BME280;39552;45.776;15.892;2022-08-19T03:10:04;99601.53;;;23.31;90.50
53651;BME280;39552;45.776;15.892;2022-08-19T03:12:35;99600.84;;;23.29;91.85
53651;BME280;39552;45.776;15.892;2022-08-19T03:15:03;99610.09;;;23.21;92.28
53651;BME280;39552;45.776;15.892;2022-08-19T03:17:30;99616.00;;;23.33;92.69
53651;BME280;39552;45.776;15.892;2022-08-19T03:19:58;99624.50;;;23.31;91.70
53651;BME280;39552;45.776;15.892;2022-08-19T03:22:25;99607.81;;;23.40;89.64
53651;BME280;39552;45.776;15.892;2022-08-19T03:24:52;99622.47;;;23.40;91.06
53651;BME280;39552;45.776;15.892;2022-08-19T03:27:19;99626.09;;;23.41;90.67
53651;BME280;39552;45.776;15.892;2022-08-19T03:29:45;99631.34;;;23.35;91.05
53651;BME280;39552;45.776;15.892;2022-08-19T03:32:14;99645.03;;;23.29;91.71
53651;BME280;39552;45.776;15.892;2022-08-19T03:34:59;99654.66;;;23.18;92.80
53651;BME280;39552;45.776;15.892;2022-08-19T03:37:26;99652.44;;;23.13;93.32
53651;BME280;39552;45.776;15.892;2022-08-19T03:39:52;99664.81;;;23.17;93.83
53651;BME280;39552;45.776;15.892;2022-08-19T03:42:19;99647.41;;;23.17;94.16
53651;BME280;39552;45.776;15.892;2022-08-19T03:45:07;99648.63;;;23.14;93.02
53651;BME280;39552;45.776;15.892;2022-08-19T03:47:33;99664.81;;;23.32;92.43
53651;BME280;39552;45.776;15.892;2022-08-19T03:50:02;99676.44;;;23.28;91.58
53651;BME280;39552;45.776;15.892;2022-08-19T03:52:29;99695.56;;;23.29;92.01
53651;BME280;39552;45.776;15.892;2022-08-19T03:54:56;99710.63;;;23.42;92.34
53651;BME280;39552;45.776;15.892;2022-08-19T03:57:22;99703.84;;;23.29;90.43
53651;BME280;39552;45.776;15.892;2022-08-19T03:59:57;99721.84;;;23.40;91.30
53651;BME280;39552;45.776;15.892;2022-08-19T04:02:39;99711.75;;;23.32;91.07
53651;BME280;39552;45.776;15.892;2022-08-19T04:05:08;99721.94;;;23.32;91.50
53651;BME280;39552;45.776;15.892;2022-08-19T04:07:35;99688.22;;;23.22;90.86
53651;BME280;39552;45.776;15.892;2022-08-19T04:10:03;99703.16;;;23.27;91.46
53651;BME280;39552;45.776;15.892;2022-08-19T04:12:29;99688.13;;;23.15;92.03
53651;BME280;39552;45.776;15.892;2022-08-19T04:14:56;99699.06;;;23.23;93.24
53651;BME280;39552;45.776;15.892;2022-08-19T04:17:23;99702.94;;;23.14;93.51
53651;BME280;39552;45.776;15.892;2022-08-19T04:19:50;99705.59;;;23.07;95.13
53651;BME280;39552;45.776;15.892;2022-08-19T04:22:18;99736.53;;;23.03;96.46
53651;BME280;39552;45.776;15.892;2022-08-19T04:24:44;99734.34;;;22.90;98.61
53651;BME280;39552;45.776;15.892;2022-08-19T04:27:11;99724.16;;;22.90;98.58
53651;BME280;39552;45.776;15.892;2022-08-19T04:29:38;99745.88;;;22.93;97.44
53651;BME280;39552;45.776;15.892;2022-08-19T04:32:05;99728.91;;;22.82;98.78
53651;BME280;39552;45.776;15.892;2022-08-19T04:34:36;99767.09;;;22.93;97.17
53651;BME280;39552;45.776;15.892;2022-08-19T04:37:25;99754.69;;;22.89;96.83
53651;BME280;39552;45.776;15.892;2022-08-19T04:39:54;99782.41;;;22.95;97.92
53651;BME280;39552;45.776;15.892;2022-08-19T04:42:27;99819.00;;;22.89;100.00
53651;BME280;39552;45.776;15.892;2022-08-19T04:44:57;99847.78;;;22.87;100.00
53651;BME280;39552;45.776;15.892;2022-08-19T04:47:24;99824.38;;;22.83;99.65
53651;BME280;39552;45.776;15.892;2022-08-19T04:50:11;99791.94;;;22.85;100.00
53651;BME280;39552;45.776;15.892;2022-08-19T04:52:39;99744.22;;;22.84;100.00
53651;BME280;39552;45.776;15.892;2022-08-19T04:55:07;99728.41;;;22.78;100.00
53651;BME280;39552;45.776;15.892;2022-08-19T04:57:33;99747.72;;;22.78;100.00
53651;BME280;39552;45.776;15.892;2022-08-19T05:00:00;99722.72;;;22.80;99.80
53651;BME280;39552;45.776;15.892;2022-08-19T05:02:27;99719.88;;;22.88;98.46
53651;BME280;39552;45.776;15.892;2022-08-19T05:04:56;99738.88;;;22.83;98.80
53651;BME280;39552;45.776;15.892;2022-08-19T05:07:23;99741.59;;;22.91;96.97
53651;BME280;39552;45.776;15.892;2022-08-19T05:09:51;99740.72;;;22.90;96.13
53651;BME280;39552;45.776;15.892;2022-08-19T05:12:24;99751.88;;;22.97;95.50
53651;BME280;39552;45.776;15.892;2022-08-19T05:14:55;99775.47;;;23.00;95.76
53651;BME280;39552;45.776;15.892;2022-08-19T05:17:22;99758.75;;;23.01;95.46
53651;BME280;39552;45.776;15.892;2022-08-19T05:19:54;99765.06;;;23.10;95.46
53651;BME280;39552;45.776;15.892;2022-08-19T05:22:20;99755.28;;;23.07;97.16
53651;BME280;39552;45.776;15.892;2022-08-19T05:24:47;99750.91;;;22.90;97.40
53651;BME280;39552;45.776;15.892;2022-08-19T05:27:35;99735.44;;;22.81;98.05
53651;BME280;39552;45.776;15.892;2022-08-19T05:30:03;99721.38;;;22.75;98.41
53651;BME280;39552;45.776;15.892;2022-08-19T05:32:30;99723.91;;;22.77;98.59
53651;BME280;39552;45.776;15.892;2022-08-19T05:34:56;99699.84;;;22.71;96.91
53651;BME280;39552;45.776;15.892;2022-08-19T05:37:23;99692.41;;;22.71;96.53
53651;BME280;39552;45.776;15.892;2022-08-19T05:39:50;99719.53;;;22.91;96.60
53651;BME280;39552;45.776;15.892;2022-08-19T05:42:17;99705.91;;;23.12;92.15
53651;BME280;39552;45.776;15.892;2022-08-19T05:44:45;99713.81;;;23.15;91.19
53651;BME280;39552;45.776;15.892;2022-08-19T05:47:13;99728.69;;;23.29;88.19
53651;BME280;39552;45.776;15.892;2022-08-19T05:49:39;99714.69;;;23.31;87.28
53651;BME280;39552;45.776;15.892;2022-08-19T05:52:09;99739.19;;;23.34;85.90
53651;BME280;39552;45.776;15.892;2022-08-19T05:54:37;99733.47;;;23.35;83.73
53651;BME280;39552;45.776;15.892;2022-08-19T05:57:04;99738.13;;;23.35;82.32
53651;BME280;39552;45.776;15.892;2022-08-19T05:59:31;99747.31;;;23.27;81.62
53651;BME280;39552;45.776;15.892;2022-08-19T06:02:02;99726.97;;;23.28;82.20
53651;BME280;39552;45.776;15.892;2022-08-19T06:04:29;99718.78;;;23.20;81.86
53651;BME280;39552;45.776;15.892;2022-08-19T06:06:55;99702.13;;;23.28;80.07
53651;BME280;39552;45.776;15.892;2022-08-19T06:09:22;99700.81;;;23.24;81.26
53651;BME280;39552;45.776;15.892;2022-08-19T06:11:51;99688.34;;;23.28;81.47
53651;BME280;39552;45.776;15.892;2022-08-19T06:14:23;99708.22;;;23.24;80.37
53651;BME280;39552;45.776;15.892;2022-08-19T06:16:53;99740.47;;;23.23;81.56
53651;BME280;39552;45.776;15.892;2022-08-19T06:19:22;99762.44;;;23.16;80.58
53651;BME280;39552;45.776;15.892;2022-08-19T06:21:51;99766.13;;;23.09;80.41
53651;BME280;39552;45.776;15.892;2022-08-19T06:24:20;99766.31;;;23.07;80.17
53651;BME280;39552;45.776;15.892;2022-08-19T06:26:48;99782.22;;;22.97;79.90
53651;BME280;39552;45.776;15.892;2022-08-19T06:29:19;99777.00;;;23.02;79.70
53651;BME280;39552;45.776;15.892;2022-08-19T06:31:52;99775.53;;;22.91;81.28
53651;BME280;39552;45.776;15.892;2022-08-19T06:34:21;99793.13;;;22.90;81.87
53651;BME280;39552;45.776;15.892;2022-08-19T06:36:50;99779.50;;;22.89;81.51
53651;BME280;39552;45.776;15.892;2022-08-19T06:39:19;99756.41;;;22.90;80.46
53651;BME280;39552;45.776;15.892;2022-08-19T06:41:49;99762.59;;;22.92;80.24
53651;BME280;39552;45.776;15.892;2022-08-19T06:44:22;99774.72;;;22.83;80.73
53651;BME280;39552;45.776;15.892;2022-08-19T06:46:51;99811.41;;;22.91;80.55
53651;BME280;39552;45.776;15.892;2022-08-19T06:49:22;99816.94;;;22.91;82.15
53651;BME280;39552;45.776;15.892;2022-08-19T06:51:49;99818.94;;;22.97;80.60
53651;BME280;39552;45.776;15.892;2022-08-19T06:54:18;99830.53;;;22.93;82.20
53651;BME280;39552;45.776;15.892;2022-08-19T06:56:46;99838.25;;;22.97;81.18
53651;BME280;39552;45.776;15.892;2022-08-19T06:59:20;99812.16;;;22.85;81.54
53651;BME280;39552;45.776;15.892;2022-08-19T07:02:04;99763.69;;;22.60;80.98
53651;BME280;39552;45.776;15.892;2022-08-19T07:04:35;99745.25;;;22.60;81.00
53651;BME280;39552;45.776;15.892;2022-08-19T07:07:05;99781.16;;;22.75;81.87
53651;BME280;39552;45.776;15.892;2022-08-19T07:09:49;99761.97;;;22.58;84.68
53651;BME280;39552;45.776;15.892;2022-08-19T07:12:58;99778.47;;;22.67;84.51
53651;BME280;39552;45.776;15.892;2022-08-19T07:15:30;99711.50;;;22.27;85.55
53651;BME280;39552;45.776;15.892;2022-08-19T07:18:11;99734.22;;;22.29;86.06
53651;BME280;39552;45.776;15.892;2022-08-19T07:20:42;99768.50;;;22.66;83.41
53651;BME280;39552;45.776;15.892;2022-08-19T07:23:14;99715.38;;;22.41;82.12
53651;BME280;39552;45.776;15.892;2022-08-19T07:25:47;99707.59;;;22.44;81.19
53651;BME280;39552;45.776;15.892;2022-08-19T07:28:19;99735.50;;;22.72;81.46
53651;BME280;39552;45.776;15.892;2022-08-19T07:30:51;99730.91;;;22.88;80.84
53651;BME280;39552;45.776;15.892;2022-08-19T07:33:19;99743.31;;;23.15;79.36
53651;BME280;39552;45.776;15.892;2022-08-19T07:35:55;99680.78;;;23.07;78.28
53651;BME280;39552;45.776;15.892;2022-08-19T07:38:22;99685.72;;;23.12;78.17
53651;BME280;39552;45.776;15.892;2022-08-19T07:41:04;99724.03;;;23.45;78.40
53651;BME280;39552;45.776;15.892;2022-08-19T07:43:44;99708.34;;;23.45;76.76
53651;BME280;39552;45.776;15.892;2022-08-19T07:46:12;99704.56;;;23.61;75.73
53651;BME280;39552;45.776;15.892;2022-08-19T07:48:40;99749.00;;;23.89;75.95
53651;BME280;39552;45.776;15.892;2022-08-19T07:51:10;99725.44;;;23.79;76.23
53651;BME280;39552;45.776;15.892;2022-08-19T07:53:40;99731.44;;;23.82;73.74
53651;BME280;39552;45.776;15.892;2022-08-19T07:56:08;99779.00;;;24.07;75.17
53651;BME280;39552;45.776;15.892;2022-08-19T07:58:41;99786.31;;;24.15;74.64
53651;BME280;39552;45.776;15.892;2022-08-19T08:01:41;99795.38;;;23.94;76.39
53651;BME280;39552;45.776;15.892;2022-08-19T08:04:10;99764.47;;;23.61;76.18
53651;BME280;39552;45.776;15.892;2022-08-19T08:16:24;99809.28;;;23.25;78.46
53651;BME280;39552;45.776;15.892;2022-08-19T08:18:52;99831.78;;;23.36;78.97
53651;BME280;39552;45.776;15.892;2022-08-19T08:21:19;99800.00;;;23.03;80.37
53651;BME280;39552;45.776;15.892;2022-08-19T08:23:46;99830.59;;;23.16;81.12
53651;BME280;39552;45.776;15.892;2022-08-19T08:26:13;99842.66;;;23.15;81.75
53651;BME280;39552;45.776;15.892;2022-08-19T08:28:41;99831.69;;;23.07;82.36
53651;BME280;39552;45.776;15.892;2022-08-19T08:31:14;99838.63;;;23.03;82.67
53651;BME280;39552;45.776;15.892;2022-08-19T08:33:43;99839.78;;;23.00;83.63
53651;BME280;39552;45.776;15.892;2022-08-19T08:36:16;99816.53;;;23.03;84.51
53651;BME280;39552;45.776;15.892;2022-08-19T08:38:44;99833.88;;;23.11;84.74
53651;BME280;39552;45.776;15.892;2022-08-19T08:41:18;99809.28;;;23.25;85.41
53651;BME280;39552;45.776;15.892;2022-08-19T08:43:51;99789.41;;;23.29;84.54
53651;BME280;39552;45.776;15.892;2022-08-19T08:46:23;99789.53;;;23.36;83.45
53651;BME280;39552;45.776;15.892;2022-08-19T08:49:02;99835.13;;;23.70;83.54
53651;BME280;39552;45.776;15.892;2022-08-19T08:51:35;99852.59;;;23.47;85.93
53651;BME280;39552;45.776;15.892;2022-08-19T08:54:06;99816.56;;;23.41;85.45
53651;BME280;39552;45.776;15.892;2022-08-19T08:56:37;99827.06;;;23.45;85.05
53651;BME280;39552;45.776;15.892;2022-08-19T08:59:05;99867.84;;;23.35;86.61
53651;BME280;39552;45.776;15.892;2022-08-19T09:01:33;99850.59;;;23.41;86.12
53651;BME280;39552;45.776;15.892;2022-08-19T09:04:04;99847.56;;;23.51;84.62
53651;BME280;39552;45.776;15.892;2022-08-19T09:06:37;99831.00;;;23.51;84.71
53651;BME280;39552;45.776;15.892;2022-08-19T09:09:14;99843.97;;;23.65;84.98
53651;BME280;39552;45.776;15.892;2022-08-19T09:11:50;99863.91;;;23.75;85.24
53651;BME280;39552;45.776;15.892;2022-08-19T09:14:32;99868.25;;;23.78;86.16
53651;BME280;39552;45.776;15.892;2022-08-19T09:17:19;99912.47;;;23.93;85.75
53651;BME280;39552;45.776;15.892;2022-08-19T09:19:51;99874.56;;;24.02;87.30
53651;BME280;39552;45.776;15.892;2022-08-19T09:22:18;99836.81;;;23.94;87.26
53651;BME280;39552;45.776;15.892;2022-08-19T09:24:53;99866.75;;;24.05;96.17
53651;BME280;39552;45.776;15.892;2022-08-19T09:27:22;99823.59;;;23.66;98.70
53651;BME280;39552;45.776;15.892;2022-08-19T09:30:11;99826.28;;;23.36;100.00
53651;BME280;39552;45.776;15.892;2022-08-19T09:32:38;99839.56;;;23.33;100.00
53651;BME280;39552;45.776;15.892;2022-08-19T09:35:07;99790.16;;;23.23;100.00
53651;BME280;39552;45.776;15.892;2022-08-19T09:37:35;99797.31;;;23.32;100.00
53651;BME280;39552;45.776;15.892;2022-08-19T09:40:03;99772.84;;;23.29;100.00
53651;BME280;39552;45.776;15.892;2022-08-19T09:42:30;99788.91;;;23.49;100.00
53651;BME280;39552;45.776;15.892;2022-08-19T09:45:01;99773.06;;;23.43;100.00
53651;BME280;39552;45.776;15.892;2022-08-19T09:47:30;99785.19;;;23.42;100.00
53651;BME280;39552;45.776;15.892;2022-08-19T09:49:57;99815.38;;;23.58;100.00
53651;BME280;39552;45.776;15.892;2022-08-19T09:52:25;99794.34;;;23.72;100.00
53651;BME280;39552;45.776;15.892;2022-08-19T09:54:58;99728.81;;;23.66;100.00
53651;BME280;39552;45.776;15.892;2022-08-19T09:57:25;99704.44;;;23.40;100.00
53651;BME280;39552;45.776;15.892;2022-08-19T09:59:52;99710.72;;;23.48;100.00
53651;BME280;39552;45.776;15.892;2022-08-19T10:02:18;99714.53;;;23.62;100.00
53651;BME280;39552;45.776;15.892;2022-08-19T10:04:47;99739.03;;;23.65;100.00
53651;BME280;39552;45.776;15.892;2022-08-19T10:07:15;99754.69;;;23.88;100.00
53651;BME280;39552;45.776;15.892;2022-08-19T10:09:44;99748.88;;;23.98;100.00
53651;BME280;39552;45.776;15.892;2022-08-19T10:12:12;99717.72;;;24.04;100.00
53651;BME280;39552;45.776;15.892;2022-08-19T10:14:43;99707.22;;;24.14;100.00
53651;BME280;39552;45.776;15.892;2022-08-19T10:17:11;99706.53;;;24.27;100.00
53651;BME280;39552;45.776;15.892;2022-08-19T10:19:46;99736.69;;;24.43;99.50
53651;BME280;39552;45.776;15.892;2022-08-19T10:22:22;99711.75;;;24.51;100.00
53651;BME280;39552;45.776;15.892;2022-08-19T10:24:52;99726.72;;;24.79;97.72
53651;BME280;39552;45.776;15.892;2022-08-19T10:27:19;99739.56;;;25.08;95.33
53651;BME280;39552;45.776;15.892;2022-08-19T10:29:46;99765.97;;;25.10;98.73
53651;BME280;39552;45.776;15.892;2022-08-19T10:32:13;99742.94;;;25.53;97.02
53651;BME280;39552;45.776;15.892;2022-08-19T10:34:40;99726.84;;;25.70;97.18
53651;BME280;39552;45.776;15.892;2022-08-19T10:37:15;99724.53;;;25.74;89.94
53651;BME280;39552;45.776;15.892;2022-08-19T10:39:50;99719.34;;;25.92;92.69
53651;BME280;39552;45.776;15.892;2022-08-19T10:42:19;99715.47;;;25.86;88.09
53651;BME280;39552;45.776;15.892;2022-08-19T10:44:45;99716.31;;;25.87;85.57
53651;BME280;39552;45.776;15.892;2022-08-19T10:47:12;99731.00;;;26.22;84.82
53651;BME280;39552;45.776;15.892;2022-08-19T10:49:52;99731.06;;;26.42;83.02
53651;BME280;39552;45.776;15.892;2022-08-19T10:52:21;99721.31;;;26.46;79.18
53651;BME280;39552;45.776;15.892;2022-08-19T10:54:58;99693.13;;;26.43;79.25
53651;BME280;39552;45.776;15.892;2022-08-19T10:57:35;99698.47;;;26.58;77.16
53651;BME280;39552;45.776;15.892;2022-08-19T11:00:23;99692.88;;;26.38;75.63
53651;BME280;39552;45.776;15.892;2022-08-19T11:02:50;99691.88;;;26.52;75.09
53651;BME280;39552;45.776;15.892;2022-08-19T11:05:18;99708.34;;;26.67;74.85
53651;BME280;39552;45.776;15.892;2022-08-19T11:07:45;99711.78;;;26.69;73.19
53651;BME280;39552;45.776;15.892;2022-08-19T11:10:14;99698.38;;;26.93;70.30
53651;BME280;39552;45.776;15.892;2022-08-19T11:12:48;99710.75;;;26.90;71.56
53651;BME280;39552;45.776;15.892;2022-08-19T11:15:15;99716.28;;;26.77;69.96
53651;BME280;39552;45.776;15.892;2022-08-19T11:17:44;99707.78;;;26.85;69.06
53651;BME280;39552;45.776;15.892;2022-08-19T11:20:19;99710.34;;;27.06;68.77
53651;BME280;39552;45.776;15.892;2022-08-19T11:22:51;99696.22;;;26.81;68.14
53651;BME280;39552;45.776;15.892;2022-08-19T11:25:17;99697.31;;;26.87;68.28
53651;BME280;39552;45.776;15.892;2022-08-19T11:27:44;99692.16;;;26.91;69.61
53651;BME280;39552;45.776;15.892;2022-08-19T11:30:13;99695.81;;;27.04;69.17
53651;BME280;39552;45.776;15.892;2022-08-19T11:32:40;99701.38;;;27.18;69.45
53651;BME280;39552;45.776;15.892;2022-08-19T11:35:14;99689.25;;;27.25;67.22
53651;BME280;39552;45.776;15.892;2022-08-19T11:37:41;99693.03;;;27.64;65.44
53651;BME280;39552;45.776;15.892;2022-08-19T11:40:09;99681.00;;;27.84;63.79
53651;BME280;39552;45.776;15.892;2022-08-19T11:42:36;99666.50;;;27.62;62.84
53651;BME280;39552;45.776;15.892;2022-08-19T11:45:03;99669.53;;;27.47;63.13
53651;BME280;39552;45.776;15.892;2022-08-19T11:47:31;99659.06;;;27.22;62.97
53651;BME280;39552;45.776;15.892;2022-08-19T11:49:58;99680.44;;;27.22;63.86
53651;BME280;39552;45.776;15.892;2022-08-19T11:52:26;99679.75;;;27.67;61.77
53651;BME280;39552;45.776;15.892;2022-08-19T11:54:52;99682.53;;;27.60;62.44
53651;BME280;39552;45.776;15.892;2022-08-19T11:57:19;99664.84;;;27.41;62.78
53651;BME280;39552;45.776;15.892;2022-08-19T11:59:49;99673.38;;;27.53;62.12
53651;BME280;39552;45.776;15.892;2022-08-19T12:02:17;99636.84;;;27.49;62.20
53651;BME280;39552;45.776;15.892;2022-08-19T12:04:45;99641.06;;;27.65;61.17
53651;BME280;39552;45.776;15.892;2022-08-19T12:07:13;99620.00;;;27.37;61.21
53651;BME280;39552;45.776;15.892;2022-08-19T12:09:40;99652.22;;;27.58;61.56
53651;BME280;39552;45.776;15.892;2022-08-19T12:12:08;99654.13;;;27.64;60.67
53651;BME280;39552;45.776;15.892;2022-08-19T12:14:36;99650.84;;;27.81;60.80
53651;BME280;39552;45.776;15.892;2022-08-19T12:17:03;99655.34;;;27.82;60.07
53651;BME280;39552;45.776;15.892;2022-08-19T12:19:30;99645.53;;;27.73;60.30
53651;BME280;39552;45.776;15.892;2022-08-19T12:22:00;99644.41;;;27.87;60.94
53651;BME280;39552;45.776;15.892;2022-08-19T12:24:28;99628.09;;;28.11;61.10
53651;BME280;39552;45.776;15.892;2022-08-19T12:26:56;99637.91;;;28.83;59.63
53651;BME280;39552;45.776;15.892;2022-08-19T12:29:28;99642.00;;;29.06;59.37
53651;BME280;39552;45.776;15.892;2022-08-19T12:31:56;99626.97;;;29.14;57.75
53651;BME280;39552;45.776;15.892;2022-08-19T12:34:23;99619.03;;;29.17;57.29
53651;BME280;39552;45.776;15.892;2022-08-19T12:36:49;99613.63;;;29.23;56.04
53651;BME280;39552;45.776;15.892;2022-08-19T12:39:18;99605.38;;;29.09;55.68
53651;BME280;39552;45.776;15.892;2022-08-19T12:41:44;99588.69;;;29.02;55.19
53651;BME280;39552;45.776;15.892;2022-08-19T12:44:19;99598.47;;;29.37;55.73
53651;BME280;39552;45.776;15.892;2022-08-19T12:46:55;99592.81;;;29.25;54.94
53651;BME280;39552;45.776;15.892;2022-08-19T12:49:21;99602.97;;;29.13;57.01
53651;BME280;39552;45.776;15.892;2022-08-19T12:52:09;99580.41;;;29.39;54.95
53651;BME280;39552;45.776;15.892;2022-08-19T12:54:37;99592.88;;;29.37;54.61
53651;BME280;39552;45.776;15.892;2022-08-19T12:57:05;99584.44;;;29.44;54.03
53651;BME280;39552;45.776;15.892;2022-08-19T12:59:32;99594.56;;;29.38;55.58
53651;BME280;39552;45.776;15.892;2022-08-19T13:01:58;99596.59;;;29.31;56.51
53651;BME280;39552;45.776;15.892;2022-08-19T13:04:25;99590.28;;;29.42;55.19
53651;BME280;39552;45.776;15.892;2022-08-19T13:06:53;99581.75;;;29.55;54.82
53651;BME280;39552;45.776;15.892;2022-08-19T13:09:20;99566.75;;;29.75;54.57
53651;BME280;39552;45.776;15.892;2022-08-19T13:11:48;99550.69;;;29.89;53.62